Terminal Aerodrome Forecast
Issued by NWS

Home | Current Version | Previous Version | Text Only | Print | Product List | Glossary On
Versions: 1 2 3 4 5 6 7 8 9 10 11 12 13 14 15 16 17 18 19
000
FTUS44 KCRP 051044 AAA
TAFALI
TAF AMD
KALI 051044Z 0511/0606 32011KT P6SM -RA SCT008 BKN025 OVC060
      TEMPO 0511/0515 SCT025 OVC060
     FM051500 31013KT P6SM SCT025 BKN060
     FM051900 30010KT P6SM FEW030 SCT060
     FM060400 25005KT P6SM SKC=

USA.gov is the U.S. government's official web portal to all federal, state and local government web resources and services.